Time;durP1;ratioP1;P1;durP2;ratioP2;P2;SDS_P1;SDS_P2;PMS_P1;PMS_P2;Temp;Humidity;BMP_temperature;BMP_pressure;BME280_temperature;BME280_humidity;BME280_pressure;Samples;Min_cycle;Max_cycle;Signal;HPM_P1;HPM_P2
2021/10/13 00:01:39;;;;;;;3.40;1.20;;;15.10;52.60;;;;;;5072004;28;20282;-46
2021/10/13 00:04:11;;;;;;;3.28;1.60;;;15.10;52.80;;;;;;5069846;28;20230;-48
2021/10/13 00:06:42;;;;;;;3.55;1.55;;;15.10;52.80;;;;;;5076510;28;20245;-45
2021/10/13 00:09:13;;;;;;;3.35;1.40;;;15.10;52.70;;;;;;5081059;28;20401;-47
2021/10/13 00:11:45;;;;;;;3.20;1.40;;;15.10;52.70;;;;;;5070669;28;20289;-49
2021/10/13 00:14:15;;;;;;;3.10;1.40;;;15.20;52.70;;;;;;5071011;28;20234;-44
2021/10/13 00:16:52;;;;;;;2.63;1.40;;;15.20;52.70;;;;;;5068587;28;20293;-46
2021/10/13 00:19:23;;;;;;;2.40;1.30;;;15.20;52.80;;;;;;5069136;28;20224;-46
2021/10/13 00:21:53;;;;;;;2.20;1.48;;;15.20;52.80;;;;;;5070787;28;20230;-47
2021/10/13 00:24:24;;;;;;;2.22;1.17;;;15.20;52.70;;;;;;5070636;28;20299;-43
2021/10/13 00:26:56;;;;;;;3.30;1.73;;;15.20;52.70;;;;;;5072205;28;20236;-44
2021/10/13 00:29:27;;;;;;;2.00;1.38;;;15.20;52.80;;;;;;5069219;28;20315;-45
2021/10/13 00:31:57;;;;;;;2.83;1.40;;;15.20;52.80;;;;;;5070033;28;20670;-42
2021/10/13 00:34:28;;;;;;;3.70;1.73;;;15.20;52.80;;;;;;5076316;28;20297;-46
2021/10/13 00:36:58;;;;;;;3.50;1.55;;;15.30;52.80;;;;;;5071417;28;20315;-42
2021/10/13 00:39:29;;;;;;;3.85;1.58;;;15.20;52.80;;;;;;5086574;28;20257;-45
2021/10/13 00:42:01;;;;;;;3.42;1.42;;;15.20;52.70;;;;;;5073800;28;20709;-45
2021/10/13 00:44:32;;;;;;;5.75;2.08;;;15.30;53.00;;;;;;5070148;28;20289;-43
2021/10/13 00:47:02;;;;;;;2.97;1.60;;;15.30;53.00;;;;;;5069910;28;20699;-43
2021/10/13 00:49:33;;;;;;;3.58;1.73;;;15.30;53.00;;;;;;5082994;28;20341;-49
2021/10/13 00:52:04;;;;;;;4.05;1.80;;;15.30;53.00;;;;;;5080257;28;20712;-52
2021/10/13 00:54:35;;;;;;;3.55;2.10;;;15.30;52.90;;;;;;5075883;28;20685;-48
2021/10/13 01:00:26;;;;;;;3.78;1.77;;;15.40;52.90;;;;;;5059535;28;20253;-54
2021/10/13 01:03:05;;;;;;;3.90;1.75;;;15.40;52.80;;;;;;5071168;28;20203;-52
2021/10/13 01:05:55;;;;;;;4.22;1.88;;;15.40;52.90;;;;;;5079504;28;20750;-49
2021/10/13 01:08:48;;;;;;;4.25;1.98;;;15.40;52.90;;;;;;5078259;28;20199;-50
2021/10/13 01:11:32;;;;;;;6.30;2.38;;;15.40;52.90;;;;;;5071890;28;20283;-51
2021/10/13 01:14:21;;;;;;;4.85;2.05;;;15.50;53.00;;;;;;5070705;28;20206;-50
2021/10/13 01:17:00;;;;;;;4.63;2.45;;;15.50;53.00;;;;;;5071284;28;20632;-48
2021/10/13 01:19:50;;;;;;;5.68;2.10;;;15.50;53.10;;;;;;5070502;28;20218;-50
2021/10/13 01:22:44;;;;;;;6.68;2.33;;;15.50;53.10;;;;;;5070502;28;20662;-47
2021/10/13 01:25:30;;;;;;;4.55;1.95;;;15.50;53.10;;;;;;5066140;28;20232;-49
2021/10/13 01:28:05;;;;;;;4.18;2.10;;;15.50;53.00;;;;;;5076097;28;20284;-52
2021/10/13 01:30:40;;;;;;;5.00;2.00;;;15.50;52.90;;;;;;5075414;28;20214;-52
2021/10/13 01:33:15;;;;;;;4.60;2.20;;;15.50;52.80;;;;;;5075665;28;21018;-51
2021/10/13 01:35:49;;;;;;;3.83;2.03;;;15.50;52.80;;;;;;5070949;28;20303;-45
2021/10/13 01:38:23;;;;;;;4.00;2.00;;;15.60;52.80;;;;;;5073881;28;20201;-53
2021/10/13 01:40:56;;;;;;;4.15;2.00;;;15.60;52.80;;;;;;5073449;28;20213;-47
2021/10/13 01:43:30;;;;;;;5.05;1.98;;;15.60;52.80;;;;;;5073281;28;20715;-52
2021/10/13 01:46:03;;;;;;;4.93;2.22;;;15.60;52.80;;;;;;5076133;28;20200;-50
2021/10/13 01:48:36;;;;;;;6.90;2.17;;;15.70;52.90;;;;;;5083895;28;20199;-50
2021/10/13 01:51:07;;;;;;;4.90;2.45;;;15.70;52.90;;;;;;5073704;28;20215;-51
2021/10/13 01:53:38;;;;;;;5.90;2.20;;;15.70;53.00;;;;;;5073314;28;20658;-53
2021/10/13 01:56:10;;;;;;;5.70;2.65;;;15.60;53.00;;;;;;5077248;28;20214;-52
2021/10/13 01:58:45;;;;;;;5.97;2.50;;;15.70;53.10;;;;;;5095915;28;20199;-48
2021/10/13 02:01:19;;;;;;;5.22;2.20;;;15.70;53.00;;;;;;5092163;28;20281;-47
2021/10/13 02:03:51;;;;;;;6.07;2.40;;;15.70;53.00;;;;;;5072313;28;20191;-50
2021/10/13 02:06:23;;;;;;;4.50;2.05;;;15.70;53.00;;;;;;5073009;28;20203;-47
2021/10/13 02:08:56;;;;;;;5.00;2.50;;;15.80;53.00;;;;;;5088564;28;20510;-49
2021/10/13 02:11:28;;;;;;;4.35;2.28;;;15.80;53.00;;;;;;5071279;28;20686;-47
2021/10/13 02:14:04;;;;;;;3.17;2.10;;;15.80;52.90;;;;;;5072435;28;20667;-49
2021/10/13 02:16:36;;;;;;;5.72;2.30;;;15.80;52.90;;;;;;5072871;28;20245;-50
2021/10/13 02:19:08;;;;;;;4.28;2.33;;;15.80;52.80;;;;;;5074333;28;20226;-54
2021/10/13 02:21:41;;;;;;;4.75;2.33;;;15.80;52.80;;;;;;5082622;28;20247;-49
2021/10/13 02:24:12;;;;;;;4.47;2.38;;;15.90;52.90;;;;;;5080250;28;20206;-51
2021/10/13 02:26:46;;;;;;;5.55;2.53;;;15.90;52.90;;;;;;5073395;28;20207;-50
2021/10/13 02:29:20;;;;;;;3.50;1.85;;;15.90;52.90;;;;;;5074387;28;20215;-51
2021/10/13 02:31:51;;;;;;;5.78;2.40;;;15.90;52.90;;;;;;5073320;28;20227;-51
2021/10/13 02:34:21;;;;;;;7.40;2.58;;;16.00;52.90;;;;;;5073568;28;20335;-43
2021/10/13 02:36:52;;;;;;;5.32;2.70;;;16.00;53.00;;;;;;5074115;28;20219;-47
2021/10/13 02:39:23;;;;;;;4.43;2.53;;;16.00;53.00;;;;;;5072967;28;20280;-46
2021/10/13 02:41:53;;;;;;;4.53;2.42;;;16.00;52.90;;;;;;5073220;28;20202;-48
2021/10/13 02:44:26;;;;;;;4.28;2.25;;;16.00;52.90;;;;;;5072416;28;20209;-50
2021/10/13 02:47:03;;;;;;;6.00;2.60;;;16.00;52.90;;;;;;5072487;28;20206;-46
2021/10/13 02:49:43;;;;;;;4.25;2.45;;;16.10;52.90;;;;;;5073355;28;20618;-46
2021/10/13 02:52:21;;;;;;;5.15;2.88;;;16.10;52.80;;;;;;5072305;28;20199;-48
2021/10/13 02:54:59;;;;;;;6.55;2.72;;;16.10;52.80;;;;;;5088835;28;20285;-47
2021/10/13 02:57:37;;;;;;;4.60;2.60;;;16.10;52.80;;;;;;5072567;28;20731;-49
2021/10/13 03:00:12;;;;;;;4.25;2.08;;;16.10;52.60;;;;;;5072567;28;20226;-52
2021/10/13 03:02:52;;;;;;;5.43;2.08;;;16.10;52.70;;;;;;5072831;28;20535;-47
2021/10/13 03:05:25;;;;;;;5.20;2.55;;;16.20;52.60;;;;;;5085614;28;20624;-44
2021/10/13 03:08:00;;;;;;;4.45;2.10;;;16.20;52.60;;;;;;5074633;28;20255;-47
2021/10/13 03:10:33;;;;;;;5.88;2.63;;;16.20;52.50;;;;;;5073451;28;20218;-48
2021/10/13 03:13:06;;;;;;;4.65;2.40;;;16.20;52.50;;;;;;5073521;28;20252;-46
2021/10/13 03:15:39;;;;;;;5.15;2.33;;;16.20;52.50;;;;;;5078518;28;20219;-47
2021/10/13 03:18:10;;;;;;;4.90;2.38;;;16.20;52.50;;;;;;5073286;28;20647;-48
2021/10/13 03:20:41;;;;;;;4.30;2.05;;;16.20;52.50;;;;;;5072264;28;20230;-46
2021/10/13 03:23:14;;;;;;;5.35;2.25;;;16.20;52.50;;;;;;5067803;28;20191;-48
2021/10/13 03:25:45;;;;;;;4.50;2.20;;;16.20;52.40;;;;;;5075264;28;20640;-47
2021/10/13 03:28:17;;;;;;;5.63;2.38;;;16.20;52.40;;;;;;5076332;28;20214;-46
2021/10/13 03:30:49;;;;;;;6.75;2.45;;;16.20;52.40;;;;;;5087094;28;20717;-45
2021/10/13 03:33:21;;;;;;;5.28;2.40;;;16.20;52.40;;;;;;5071087;28;20195;-47
2021/10/13 03:35:51;;;;;;;3.97;1.92;;;16.30;52.40;;;;;;5072509;28;20226;-45
2021/10/13 03:38:22;;;;;;;3.97;2.03;;;16.30;52.40;;;;;;5073152;28;20260;-43
2021/10/13 03:40:53;;;;;;;5.70;2.30;;;16.30;52.40;;;;;;5070623;28;20275;-50
2021/10/13 03:43:23;;;;;;;4.80;2.05;;;16.30;52.40;;;;;;5071655;28;20206;-47
2021/10/13 03:45:56;;;;;;;3.25;2.17;;;16.30;52.30;;;;;;5070056;28;20202;-51
2021/10/13 03:48:27;;;;;;;4.43;2.47;;;16.30;52.30;;;;;;5084245;28;20248;-48
2021/10/13 03:50:58;;;;;;;4.50;2.13;;;16.30;52.30;;;;;;5084691;28;20226;-51
2021/10/13 03:53:28;;;;;;;4.75;2.28;;;16.30;52.30;;;;;;5077646;28;20681;-53
2021/10/13 03:55:59;;;;;;;3.42;2.15;;;16.40;52.30;;;;;;5075620;28;20221;-49
2021/10/13 03:58:30;;;;;;;4.05;1.90;;;16.40;52.20;;;;;;5073204;28;20264;-45
2021/10/13 04:01:02;;;;;;;3.72;2.17;;;16.40;52.20;;;;;;5072151;28;20225;-45
2021/10/13 04:03:33;;;;;;;3.85;2.47;;;16.40;52.20;;;;;;5070856;28;20199;-52
2021/10/13 04:06:04;;;;;;;3.63;2.33;;;16.50;52.20;;;;;;5082429;28;20199;-47
2021/10/13 04:08:34;;;;;;;5.13;2.40;;;16.40;52.10;;;;;;5086357;28;20194;-47
2021/10/13 04:11:05;;;;;;;4.88;1.80;;;16.50;52.10;;;;;;5070932;28;20215;-49
2021/10/13 04:13:36;;;;;;;4.25;1.92;;;16.40;52.10;;;;;;5087585;28;20205;-47
2021/10/13 04:16:09;;;;;;;4.20;2.28;;;16.50;52.10;;;;;;5068707;28;20225;-51
2021/10/13 04:18:40;;;;;;;4.82;2.53;;;16.50;52.10;;;;;;5085166;28;20273;-44
2021/10/13 04:21:10;;;;;;;4.40;2.15;;;16.50;52.10;;;;;;5070030;28;20206;-48
2021/10/13 04:23:41;;;;;;;5.82;2.35;;;16.50;52.10;;;;;;5071333;28;20682;-44
2021/10/13 04:26:12;;;;;;;3.50;2.00;;;16.50;52.10;;;;;;5068037;28;20240;-44
2021/10/13 04:28:42;;;;;;;5.05;2.33;;;16.50;52.10;;;;;;5069771;28;20666;-46
2021/10/13 04:31:15;;;;;;;5.80;2.67;;;16.50;52.00;;;;;;5071992;28;20202;-48
2021/10/13 04:33:45;;;;;;;4.90;2.55;;;16.50;52.00;;;;;;5077872;28;20934;-45
2021/10/13 04:36:16;;;;;;;4.15;1.98;;;16.50;52.00;;;;;;5068848;28;20299;-49
2021/10/13 04:38:46;;;;;;;4.43;2.42;;;16.60;52.00;;;;;;5079608;28;20209;-49
2021/10/13 04:41:17;;;;;;;3.95;1.92;;;16.50;52.00;;;;;;5080566;28;20202;-48
2021/10/13 04:43:48;;;;;;;4.90;2.33;;;16.50;52.00;;;;;;5082434;28;20202;-47
2021/10/13 04:46:20;;;;;;;3.60;1.85;;;16.50;51.90;;;;;;5066659;28;20654;-47
2021/10/13 04:48:51;;;;;;;4.85;2.35;;;16.60;52.00;;;;;;5070033;28;20202;-51
2021/10/13 04:51:22;;;;;;;5.10;2.15;;;16.60;52.00;;;;;;5070189;28;20272;-49
2021/10/13 04:53:52;;;;;;;4.93;2.22;;;16.60;51.90;;;;;;5073389;28;20195;-49
2021/10/13 04:56:23;;;;;;;4.22;2.42;;;16.60;52.00;;;;;;5066875;28;20219;-51
2021/10/13 04:58:53;;;;;;;3.63;2.00;;;16.60;52.00;;;;;;5071734;28;20256;-50
2021/10/13 05:01:26;;;;;;;5.05;2.00;;;16.60;51.80;;;;;;5069813;28;20272;-49
2021/10/13 05:03:57;;;;;;;4.07;2.30;;;16.60;51.80;;;;;;5077246;28;20198;-46
2021/10/13 05:06:27;;;;;;;5.07;2.20;;;16.60;52.50;;;;;;5079821;28;20218;-47
2021/10/13 05:08:58;;;;;;;4.18;2.30;;;16.60;51.80;;;;;;5074136;28;20206;-51
2021/10/13 05:11:28;;;;;;;3.95;1.90;;;16.60;51.80;;;;;;5074737;28;20195;-46
2021/10/13 05:13:59;;;;;;;3.00;1.90;;;16.60;51.80;;;;;;5080095;28;20199;-49
2021/10/13 05:16:32;;;;;;;4.00;2.17;;;16.60;51.80;;;;;;5075390;28;20218;-49
2021/10/13 05:19:02;;;;;;;3.75;2.10;;;16.70;52.40;;;;;;5072141;28;20206;-48
2021/10/13 05:21:33;;;;;;;3.97;2.08;;;16.70;51.80;;;;;;5073196;28;20194;-47
2021/10/13 05:24:04;;;;;;;4.68;2.08;;;16.60;51.70;;;;;;5072906;28;20272;-49
2021/10/13 05:26:34;;;;;;;5.63;2.50;;;16.70;51.70;;;;;;5075387;28;20206;-45
2021/10/13 05:29:08;;;;;;;4.03;2.13;;;16.70;51.70;;;;;;5075351;28;20215;-50
2021/10/13 05:31:40;;;;;;;4.97;2.60;;;16.70;51.80;;;;;;5073102;28;20195;-52
2021/10/13 05:34:11;;;;;;;5.32;2.20;;;16.70;51.80;;;;;;5076800;28;20197;-47
2021/10/13 05:36:42;;;;;;;3.85;2.22;;;16.70;51.80;;;;;;5074528;28;20230;-51
2021/10/13 05:39:14;;;;;;;3.35;1.95;;;16.70;51.80;;;;;;5087511;28;20275;-50
2021/10/13 05:41:45;;;;;;;3.20;1.90;;;16.70;51.70;;;;;;5089394;28;20604;-43
2021/10/13 05:44:16;;;;;;;4.65;2.30;;;16.70;51.70;;;;;;5086738;28;20198;-51
2021/10/13 05:46:48;;;;;;;5.18;2.13;;;16.80;51.70;;;;;;5071755;28;20206;-50
2021/10/13 05:49:19;;;;;;;5.13;2.13;;;16.80;51.70;;;;;;5072988;28;20276;-50
2021/10/13 05:51:49;;;;;;;4.50;2.45;;;16.80;51.60;;;;;;5073184;28;20203;-51
2021/10/13 05:54:20;;;;;;;4.10;2.22;;;16.90;51.70;;;;;;5073692;28;20199;-47
2021/10/13 05:56:51;;;;;;;4.40;1.98;;;16.90;51.60;;;;;;5075146;28;20226;-49
2021/10/13 05:59:22;;;;;;;5.07;2.30;;;16.80;51.60;;;;;;5086508;28;20214;-53
2021/10/13 06:01:54;;;;;;;3.47;2.17;;;16.80;51.50;;;;;;5075304;28;20190;-46
2021/10/13 06:04:25;;;;;;;4.15;2.20;;;16.90;51.50;;;;;;5074572;28;20248;-52
2021/10/13 06:06:56;;;;;;;4.35;2.05;;;16.90;51.50;;;;;;5074886;28;20195;-52
2021/10/13 06:09:27;;;;;;;5.68;2.65;;;16.90;51.50;;;;;;5073693;28;20226;-55
2021/10/13 06:11:57;;;;;;;5.30;2.30;;;16.90;51.50;;;;;;5074200;28;20203;-54
2021/10/13 06:14:28;;;;;;;4.70;2.35;;;16.90;51.50;;;;;;5074944;28;20213;-52
2021/10/13 06:17:00;;;;;;;5.38;2.22;;;16.90;51.50;;;;;;5073167;28;20272;-55
2021/10/13 06:19:31;;;;;;;5.43;2.45;;;16.90;51.50;;;;;;5074847;28;20227;-49
2021/10/13 06:22:01;;;;;;;5.10;2.45;;;16.90;51.50;;;;;;5074904;28;20264;-53
2021/10/13 06:24:32;;;;;;;4.18;2.50;;;16.90;51.50;;;;;;5073716;28;20210;-51
2021/10/13 06:27:03;;;;;;;4.00;2.33;;;16.90;51.50;;;;;;5074927;28;20203;-53
2021/10/13 06:29:33;;;;;;;5.22;2.42;;;16.90;51.50;;;;;;5073269;28;20222;-52
2021/10/13 06:32:06;;;;;;;4.72;2.40;;;16.90;51.40;;;;;;5073010;28;20226;-55
2021/10/13 06:34:37;;;;;;;4.43;2.47;;;16.90;51.40;;;;;;5073622;28;20206;-51
2021/10/13 06:37:08;;;;;;;6.55;3.10;;;16.90;51.50;;;;;;5074926;28;20260;-46
2021/10/13 06:39:39;;;;;;;7.30;3.72;;;17.00;52.00;;;;;;5078946;28;20611;-48
2021/10/13 06:42:09;;;;;;;5.60;2.63;;;17.00;52.50;;;;;;5073989;28;20281;-53
2021/10/13 06:44:40;;;;;;;4.07;2.40;;;17.00;52.80;;;;;;5073793;28;20203;-54
2021/10/13 06:47:13;;;;;;;5.40;2.72;;;17.00;53.00;;;;;;5072796;28;20210;-51
2021/10/13 06:49:43;;;;;;;4.22;2.55;;;17.00;53.10;;;;;;5073218;28;20226;-50
2021/10/13 06:52:14;;;;;;;5.45;2.42;;;17.00;53.00;;;;;;5072970;28;20195;-53
2021/10/13 06:54:44;;;;;;;3.78;2.30;;;17.10;53.00;;;;;;5074310;28;20199;-51
2021/10/13 06:57:15;;;;;;;5.95;2.67;;;17.00;52.80;;;;;;5072486;28;20223;-51
2021/10/13 06:59:46;;;;;;;5.03;2.83;;;17.00;52.50;;;;;;5072434;28;20573;-52
2021/10/13 07:02:18;;;;;;;5.05;2.70;;;17.00;52.30;;;;;;5072866;28;20864;-50
2021/10/13 07:04:49;;;;;;;5.97;2.83;;;17.00;52.20;;;;;;5072947;28;20551;-54
2021/10/13 07:07:19;;;;;;;7.03;2.95;;;17.00;52.20;;;;;;5073883;28;20202;-52
2021/10/13 07:09:50;;;;;;;6.95;2.25;;;17.00;52.10;;;;;;5072401;28;20215;-48
2021/10/13 07:12:20;;;;;;;6.00;2.83;;;17.00;52.10;;;;;;5073760;28;20203;-48
2021/10/13 07:14:51;;;;;;;6.03;2.60;;;17.00;52.00;;;;;;5073550;28;20550;-48
2021/10/13 07:17:24;;;;;;;6.80;3.08;;;17.00;52.00;;;;;;5089317;28;20722;-49
2021/10/13 07:19:55;;;;;;;4.38;2.45;;;17.00;52.00;;;;;;5084510;28;20210;-49
2021/10/13 07:22:26;;;;;;;5.78;2.95;;;16.90;51.80;;;;;;5081318;28;20205;-50
2021/10/13 07:24:57;;;;;;;4.85;2.00;;;17.00;51.80;;;;;;5072256;28;20203;-44
2021/10/13 07:27:29;;;;;;;6.93;2.63;;;16.90;51.80;;;;;;5071724;28;20237;-49
2021/10/13 07:30:01;;;;;;;7.53;2.70;;;16.90;51.70;;;;;;5071993;28;20617;-48
2021/10/13 07:32:34;;;;;;;5.25;2.97;;;16.90;51.70;;;;;;5074052;28;20251;-50
2021/10/13 07:35:07;;;;;;;4.60;2.80;;;16.90;51.60;;;;;;5082466;28;20198;-48
2021/10/13 07:37:37;;;;;;;4.80;2.97;;;16.90;51.60;;;;;;5076893;28;20223;-52
2021/10/13 07:40:09;;;;;;;4.15;2.47;;;16.90;51.60;;;;;;5073483;28;20215;-45
2021/10/13 07:42:40;;;;;;;5.90;2.63;;;16.90;51.70;;;;;;5073465;28;20206;-46
2021/10/13 07:45:11;;;;;;;5.85;2.63;;;16.80;51.60;;;;;;5071418;28;20195;-51
2021/10/13 07:47:44;;;;;;;5.75;2.90;;;16.80;51.60;;;;;;5071034;28;20586;-48
2021/10/13 07:50:15;;;;;;;5.78;2.85;;;16.80;51.60;;;;;;5071341;28;20222;-49
2021/10/13 07:52:46;;;;;;;5.47;2.90;;;16.80;51.60;;;;;;5073166;28;20539;-46
2021/10/13 07:55:16;;;;;;;5.85;3.00;;;16.80;51.60;;;;;;5075497;28;20256;-44
2021/10/13 07:57:47;;;;;;;4.70;3.10;;;16.70;51.60;;;;;;5088667;28;20223;-42
2021/10/13 08:00:20;;;;;;;4.38;3.15;;;16.70;51.60;;;;;;5066856;28;20237;-46
2021/10/13 08:02:52;;;;;;;4.50;2.72;;;16.70;51.60;;;;;;5067249;28;20198;-42
2021/10/13 08:05:23;;;;;;;5.35;2.60;;;16.70;51.60;;;;;;5068762;28;20264;-42
2021/10/13 08:07:53;;;;;;;4.88;2.67;;;16.60;51.50;;;;;;5068978;28;20202;-44
2021/10/13 08:10:24;;;;;;;4.05;2.50;;;16.70;51.50;;;;;;5076370;28;20217;-44
2021/10/13 08:12:55;;;;;;;4.25;2.70;;;16.60;51.50;;;;;;5076901;28;20635;-45
2021/10/13 08:15:26;;;;;;;4.60;2.30;;;16.60;51.50;;;;;;5066026;28;20207;-44
2021/10/13 08:17:58;;;;;;;4.88;2.50;;;16.60;51.50;;;;;;5069623;28;20222;-46
2021/10/13 08:20:29;;;;;;;5.30;2.83;;;16.60;51.50;;;;;;5066811;28;20222;-42
2021/10/13 08:23:00;;;;;;;5.72;2.88;;;16.50;51.50;;;;;;5070507;28;20225;-43
2021/10/13 08:25:30;;;;;;;4.45;2.60;;;16.60;51.50;;;;;;5070975;28;20187;-44
2021/10/13 08:28:01;;;;;;;4.45;2.40;;;16.50;51.50;;;;;;5071060;28;20195;-44
2021/10/13 08:30:31;;;;;;;5.55;2.78;;;16.50;51.50;;;;;;5068796;28;20272;-44
2021/10/13 08:33:04;;;;;;;4.70;2.38;;;16.50;51.50;;;;;;5069858;28;20677;-43
2021/10/13 08:35:34;;;;;;;5.53;2.60;;;16.50;51.50;;;;;;5087524;28;20577;-46
2021/10/13 08:38:05;;;;;;;4.45;2.55;;;16.40;51.40;;;;;;5065735;28;20740;-43
2021/10/13 08:40:36;;;;;;;4.15;2.22;;;16.40;51.50;;;;;;5084494;28;21007;-42
2021/10/13 08:43:07;;;;;;;6.18;2.67;;;16.40;51.50;;;;;;5074550;28;20267;-42
2021/10/13 08:45:39;;;;;;;6.00;2.63;;;16.40;51.50;;;;;;5074855;28;20202;-47
2021/10/13 08:48:12;;;;;;;4.53;2.40;;;16.40;51.50;;;;;;5074972;28;20198;-45
2021/10/13 08:50:43;;;;;;;6.40;3.00;;;16.40;51.40;;;;;;5073455;28;20218;-43
2021/10/13 08:53:14;;;;;;;5.93;2.70;;;16.40;51.40;;;;;;5072585;28;20202;-44
2021/10/13 08:55:46;;;;;;;3.72;2.15;;;16.30;51.40;;;;;;5072803;28;20202;-46
2021/10/13 08:58:18;;;;;;;4.47;2.45;;;16.30;51.40;;;;;;5073658;28;20690;-43
2021/10/13 09:00:50;;;;;;;4.22;2.30;;;16.30;51.40;;;;;;5074125;28;20671;-45
2021/10/13 09:03:33;;;;;;;4.30;2.30;;;16.30;51.40;;;;;;5074695;28;20248;-43
2021/10/13 09:06:21;;;;;;;3.78;2.33;;;16.30;51.40;;;;;;5072933;28;20202;-43
2021/10/13 09:09:00;;;;;;;3.15;2.10;;;16.20;51.30;;;;;;5084915;28;20561;-44
2021/10/13 09:11:39;;;;;;;5.75;2.58;;;16.20;51.30;;;;;;5073898;28;20248;-43
2021/10/13 09:14:15;;;;;;;5.10;2.40;;;16.20;51.40;;;;;;5074036;28;20256;-43
2021/10/13 09:16:58;;;;;;;4.85;2.35;;;16.20;51.30;;;;;;5073137;28;20581;-44
2021/10/13 09:19:31;;;;;;;5.07;2.58;;;16.20;51.40;;;;;;5073627;28;20234;-42
2021/10/13 09:22:04;;;;;;;3.13;2.38;;;16.20;51.40;;;;;;5069229;28;20201;-47
2021/10/13 09:24:35;;;;;;;3.75;2.00;;;16.20;51.40;;;;;;5078516;28;20607;-46
2021/10/13 09:27:26;;;;;;;4.55;2.63;;;16.10;51.30;;;;;;5073149;28;20190;-46
2021/10/13 09:30:02;;;;;;;4.32;2.45;;;16.20;51.40;;;;;;5087221;28;20887;-46
2021/10/13 09:32:33;;;;;;;3.83;2.10;;;16.10;51.30;;;;;;5071527;28;20195;-45
2021/10/13 09:35:07;;;;;;;4.47;2.22;;;16.10;51.30;;;;;;5080065;28;20198;-46
2021/10/13 09:37:47;;;;;;;5.28;2.78;;;16.10;51.30;;;;;;5080040;28;20229;-48
2021/10/13 09:40:28;;;;;;;4.63;2.13;;;16.10;51.30;;;;;;5099848;28;20248;-49
2021/10/13 09:43:00;;;;;;;4.15;2.08;;;16.10;51.40;;;;;;5086614;28;20195;-45
2021/10/13 09:45:32;;;;;;;3.15;2.00;;;16.10;51.40;;;;;;5071664;28;20750;-47
2021/10/13 09:48:05;;;;;;;3.13;2.10;;;16.10;51.40;;;;;;5074020;28;20252;-47
2021/10/13 09:50:50;;;;;;;3.88;2.08;;;16.00;51.30;;;;;;5069679;28;20215;-47
2021/10/13 09:53:23;;;;;;;5.20;2.30;;;16.00;51.40;;;;;;5082085;28;20279;-49
2021/10/13 09:55:54;;;;;;;3.97;2.40;;;16.00;51.40;;;;;;5073837;28;20663;-47
2021/10/13 09:58:30;;;;;;;3.78;2.22;;;16.00;51.40;;;;;;5073631;28;20233;-46
2021/10/13 10:01:14;;;;;;;3.83;2.20;;;16.00;51.40;;;;;;5075137;28;20222;-46
2021/10/13 10:03:46;;;;;;;5.10;2.15;;;16.00;51.40;;;;;;5074989;28;20244;-44
2021/10/13 10:06:20;;;;;;;5.82;2.53;;;16.00;51.40;;;;;;5073519;28;20206;-49
2021/10/13 10:09:07;;;;;;;3.70;2.10;;;16.00;51.40;;;;;;5073881;28;20203;-46
2021/10/13 10:11:40;;;;;;;4.35;2.03;;;16.00;51.50;;;;;;5075372;28;20224;-48
2021/10/13 10:14:48;;;;;;;3.30;1.80;;;16.00;52.00;;;;;;5073620;28;20654;-45
2021/10/13 10:17:42;;;;;;;4.07;2.08;;;16.00;51.40;;;;;;5074457;28;20202;-49
2021/10/13 10:20:37;;;;;;;3.80;2.20;;;15.90;51.30;;;;;;5074973;28;20231;-45
2021/10/13 10:23:33;;;;;;;3.33;1.90;;;15.90;51.30;;;;;;5074045;28;20239;-45
2021/10/13 10:26:24;;;;;;;3.55;2.00;;;15.90;51.30;;;;;;5073542;28;20199;-46
2021/10/13 10:28:57;;;;;;;4.53;2.08;;;15.90;51.40;;;;;;5072273;28;20191;-46
2021/10/13 10:31:42;;;;;;;4.78;2.35;;;15.90;51.40;;;;;;5074157;28;20210;-42
2021/10/13 10:34:20;;;;;;;4.35;2.15;;;15.90;51.40;;;;;;5072793;28;20556;-48
2021/10/13 10:37:16;;;;;;;3.58;1.80;;;15.90;51.40;;;;;;5072143;28;20198;-47
2021/10/13 10:40:04;;;;;;;3.28;1.88;;;15.90;51.40;;;;;;5090520;28;20392;-49
2021/10/13 10:43:06;;;;;;;3.67;1.98;;;15.80;51.40;;;;;;5074485;28;20219;-50
2021/10/13 10:45:40;;;;;;;3.03;2.30;;;15.80;51.40;;;;;;5072906;28;20281;-43
2021/10/13 10:48:15;;;;;;;4.40;1.83;;;15.80;51.40;;;;;;5074035;28;20205;-45
2021/10/13 10:50:59;;;;;;;4.45;2.15;;;15.80;51.40;;;;;;5073194;28;20218;-48
2021/10/13 10:53:41;;;;;;;3.72;2.33;;;15.80;51.40;;;;;;5073242;28;20194;-44
2021/10/13 10:56:25;;;;;;;4.63;2.15;;;15.80;51.40;;;;;;5073109;28;20337;-43
2021/10/13 10:59:14;;;;;;;3.00;1.75;;;15.80;51.40;;;;;;5072494;28;20250;-44
2021/10/13 11:02:08;;;;;;;3.17;1.80;;;15.80;51.40;;;;;;5073851;28;20307;-44
2021/10/13 11:04:39;;;;;;;2.22;1.98;;;15.80;51.40;;;;;;5074722;28;20197;-44
2021/10/13 11:07:20;;;;;;;4.60;2.10;;;15.80;51.40;;;;;;5072286;28;20205;-46
2021/10/13 11:10:01;;;;;;;3.97;2.30;;;15.80;51.40;;;;;;5072114;28;20279;-48
2021/10/13 11:12:49;;;;;;;3.65;1.83;;;15.80;51.40;;;;;;5072579;28;20285;-48
2021/10/13 11:15:20;;;;;;;2.67;1.60;;;15.70;51.40;;;;;;5072972;28;20199;-45
2021/10/13 11:17:51;;;;;;;3.75;1.83;;;15.70;51.30;;;;;;5086059;28;20190;-45
2021/10/13 11:20:23;;;;;;;4.97;2.30;;;15.70;51.40;;;;;;5073775;28;20221;-45
2021/10/13 11:23:00;;;;;;;3.00;1.83;;;15.70;51.40;;;;;;5071781;28;20711;-45
2021/10/13 11:25:31;;;;;;;5.05;2.20;;;15.70;51.40;;;;;;5072456;28;20553;-43
2021/10/13 11:28:05;;;;;;;3.47;2.20;;;15.70;51.40;;;;;;5072729;28;20209;-43
2021/10/13 11:30:40;;;;;;;2.58;1.92;;;15.70;51.40;;;;;;5085609;28;20218;-45
2021/10/13 11:33:11;;;;;;;4.43;1.77;;;15.70;51.30;;;;;;5072012;28;20195;-44
2021/10/13 11:35:43;;;;;;;3.70;1.90;;;15.70;51.30;;;;;;5072517;28;20203;-45
2021/10/13 11:38:18;;;;;;;4.20;1.98;;;15.70;51.40;;;;;;5072758;28;20628;-46
2021/10/13 11:40:49;;;;;;;3.72;2.17;;;15.70;51.40;;;;;;5073772;28;20241;-47
2021/10/13 11:43:22;;;;;;;2.15;1.73;;;15.70;51.40;;;;;;5071975;28;20206;-42
2021/10/13 11:45:55;;;;;;;3.67;2.20;;;15.60;51.30;;;;;;5073540;28;20202;-45
2021/10/13 11:48:26;;;;;;;3.17;1.60;;;15.60;51.40;;;;;;5072399;28;20202;-44
2021/10/13 11:51:00;;;;;;;2.78;1.90;;;15.60;51.40;;;;;;5073161;28;20266;-44
2021/10/13 11:53:31;;;;;;;3.13;1.67;;;15.60;51.40;;;;;;5071338;28;20237;-47
2021/10/13 11:56:02;;;;;;;4.03;2.08;;;15.60;51.40;;;;;;5079052;28;20202;-43
2021/10/13 11:58:34;;;;;;;3.40;1.70;;;15.60;51.40;;;;;;5073384;28;20226;-46
2021/10/13 12:01:05;;;;;;;3.60;1.70;;;15.60;51.40;;;;;;5071536;28;20224;-45
2021/10/13 12:03:37;;;;;;;3.22;1.85;;;15.60;51.40;;;;;;5071545;28;20681;-46
2021/10/13 12:06:08;;;;;;;2.17;1.58;;;15.60;51.40;;;;;;5071241;28;20272;-44
2021/10/13 12:08:40;;;;;;;2.45;1.70;;;15.60;51.40;;;;;;5072008;28;20253;-43
2021/10/13 12:11:12;;;;;;;3.10;1.95;;;15.60;51.40;;;;;;5072695;28;20201;-47
2021/10/13 12:13:46;;;;;;;1.92;1.70;;;15.60;51.40;;;;;;5071824;28;20195;-47
2021/10/13 12:16:22;;;;;;;2.72;1.73;;;15.60;51.40;;;;;;5071731;28;20569;-45
2021/10/13 12:18:53;;;;;;;3.50;1.60;;;15.50;51.40;;;;;;5070883;28;20233;-44
2021/10/13 12:21:24;;;;;;;3.38;1.55;;;15.50;51.40;;;;;;5071320;28;20202;-45
2021/10/13 12:23:58;;;;;;;2.55;2.00;;;15.50;51.40;;;;;;5073026;28;20603;-46
2021/10/13 12:26:30;;;;;;;3.95;1.63;;;15.50;51.40;;;;;;5072760;28;20887;-47
2021/10/13 12:29:11;;;;;;;3.53;1.70;;;15.50;51.40;;;;;;5071280;28;20206;-47
2021/10/13 12:31:42;;;;;;;2.30;1.75;;;15.50;51.50;;;;;;5072323;28;20199;-44
2021/10/13 12:34:15;;;;;;;2.90;1.75;;;15.50;51.40;;;;;;5073844;28;20194;-44
2021/10/13 12:36:51;;;;;;;2.50;1.90;;;15.50;51.50;;;;;;5081579;28;20191;-42
2021/10/13 12:39:26;;;;;;;2.90;1.73;;;15.50;51.50;;;;;;5071354;28;20634;-44
2021/10/13 12:42:05;;;;;;;2.20;1.73;;;15.50;52.10;;;;;;5072107;28;20206;-44
2021/10/13 12:44:39;;;;;;;2.45;1.60;;;15.50;51.50;;;;;;5071400;28;20277;-42
2021/10/13 12:47:11;;;;;;;2.17;1.42;;;15.50;51.50;;;;;;5073313;28;20194;-43
2021/10/13 12:49:43;;;;;;;2.72;1.80;;;15.50;51.50;;;;;;5086255;28;20225;-43
2021/10/13 12:52:14;;;;;;;3.80;1.98;;;15.40;51.50;;;;;;5070872;28;20795;-45
2021/10/13 12:54:46;;;;;;;2.30;1.60;;;15.40;51.50;;;;;;5070673;28;20259;-43
2021/10/13 12:57:17;;;;;;;3.13;1.73;;;15.40;51.50;;;;;;5070712;28;20199;-43
2021/10/13 12:59:51;;;;;;;4.32;1.92;;;15.40;51.50;;;;;;5086964;28;20233;-42
2021/10/13 13:02:22;;;;;;;2.45;1.60;;;15.40;51.50;;;;;;5070936;28;20205;-46
2021/10/13 13:04:54;;;;;;;3.85;1.77;;;15.40;51.50;;;;;;5080221;28;20213;-42
2021/10/13 13:07:25;;;;;;;2.00;1.77;;;15.40;51.50;;;;;;5076168;28;20202;-46
2021/10/13 13:09:56;;;;;;;3.58;1.70;;;15.40;51.50;;;;;;5073195;28;20227;-42
2021/10/13 13:12:27;;;;;;;3.15;1.60;;;15.40;51.60;;;;;;5073163;28;20206;-43
2021/10/13 13:14:59;;;;;;;2.58;1.60;;;15.40;51.60;;;;;;5070800;28;20210;-48
2021/10/13 13:17:30;;;;;;;3.45;1.80;;;15.40;51.60;;;;;;5071109;28;20264;-43
2021/10/13 13:20:00;;;;;;;2.88;1.85;;;15.40;51.60;;;;;;5071167;28;20747;-42
2021/10/13 13:22:31;;;;;;;2.65;1.92;;;15.40;51.50;;;;;;5071204;28;20285;-42
2021/10/13 13:25:02;;;;;;;3.72;1.50;;;15.40;51.60;;;;;;5071038;28;20195;-43